sensor_id;sensor_type;location;lat;lon;timestamp;pressure;altitude;pressure_sealevel;temperature;humidity
54306;BME280;66145;45.188;5.712;2024-02-26T00:00:11;97501.06;;;20.95;41.81
54306;BME280;66145;45.188;5.712;2024-02-26T00:02:37;97464.34;;;20.80;41.78
54306;BME280;66145;45.188;5.712;2024-02-26T00:05:06;97496.06;;;21.01;41.77
54306;BME280;66145;45.188;5.712;2024-02-26T00:07:32;97469.50;;;20.86;41.90
54306;BME280;66145;45.188;5.712;2024-02-26T00:09:57;97459.88;;;20.72;41.67
54306;BME280;66145;45.188;5.712;2024-02-26T00:12:23;97493.16;;;20.90;41.90
54306;BME280;66145;45.188;5.712;2024-02-26T00:14:48;97476.75;;;20.71;42.33
54306;BME280;66145;45.188;5.712;2024-02-26T00:17:15;97485.91;;;20.78;42.19
54306;BME280;66145;45.188;5.712;2024-02-26T00:19:41;97463.75;;;20.67;42.55
54306;BME280;66145;45.188;5.712;2024-02-26T00:22:06;97473.38;;;20.81;42.29
54306;BME280;66145;45.188;5.712;2024-02-26T00:24:31;97485.25;;;20.89;42.39
54306;BME280;66145;45.188;5.712;2024-02-26T00:26:57;97483.31;;;20.89;42.45
54306;BME280;66145;45.188;5.712;2024-02-26T00:29:22;97493.50;;;20.89;42.24
54306;BME280;66145;45.188;5.712;2024-02-26T00:31:48;97476.09;;;20.77;42.71
54306;BME280;66145;45.188;5.712;2024-02-26T00:34:14;97484.06;;;20.86;42.62
54306;BME280;66145;45.188;5.712;2024-02-26T00:36:39;97469.81;;;20.77;42.68
54306;BME280;66145;45.188;5.712;2024-02-26T00:39:05;97488.81;;;20.89;42.54
54306;BME280;66145;45.188;5.712;2024-02-26T00:41:30;97477.81;;;20.89;42.44
54306;BME280;66145;45.188;5.712;2024-02-26T00:43:55;97446.06;;;20.65;42.71
54306;BME280;66145;45.188;5.712;2024-02-26T00:46:21;97477.28;;;20.80;42.41
54306;BME280;66145;45.188;5.712;2024-02-26T00:48:46;97478.28;;;20.68;42.46
54306;BME280;66145;45.188;5.712;2024-02-26T00:51:12;97463.28;;;20.62;42.71
54306;BME280;66145;45.188;5.712;2024-02-26T00:53:37;97474.31;;;20.65;42.70
54306;BME280;66145;45.188;5.712;2024-02-26T00:56:02;97461.69;;;20.61;42.77
54306;BME280;66145;45.188;5.712;2024-02-26T00:58:28;97464.44;;;20.61;42.68
54306;BME280;66145;45.188;5.712;2024-02-26T01:00:53;97467.22;;;20.64;42.85
54306;BME280;66145;45.188;5.712;2024-02-26T01:03:21;97458.94;;;20.61;42.68
54306;BME280;66145;45.188;5.712;2024-02-26T01:05:47;97452.28;;;20.62;42.69
54306;BME280;66145;45.188;5.712;2024-02-26T01:08:13;97451.84;;;20.60;42.56
54306;BME280;66145;45.188;5.712;2024-02-26T01:10:38;97452.59;;;20.57;42.80
54306;BME280;66145;45.188;5.712;2024-02-26T01:13:04;97446.69;;;20.55;42.63
54306;BME280;66145;45.188;5.712;2024-02-26T01:15:29;97445.94;;;20.58;42.69
54306;BME280;66145;45.188;5.712;2024-02-26T01:17:54;97438.13;;;20.60;42.76
54306;BME280;66145;45.188;5.712;2024-02-26T01:20:20;97436.50;;;20.55;42.59
54306;BME280;66145;45.188;5.712;2024-02-26T01:22:45;97437.28;;;20.56;42.60
54306;BME280;66145;45.188;5.712;2024-02-26T01:25:12;97423.13;;;20.54;42.95
54306;BME280;66145;45.188;5.712;2024-02-26T01:27:37;97427.88;;;20.57;42.76
54306;BME280;66145;45.188;5.712;2024-02-26T01:30:03;97406.88;;;20.41;42.82
54306;BME280;66145;45.188;5.712;2024-02-26T01:32:29;97430.41;;;20.42;42.89
54306;BME280;66145;45.188;5.712;2024-02-26T01:34:57;97428.34;;;20.35;43.18
54306;BME280;66145;45.188;5.712;2024-02-26T01:37:23;97414.88;;;20.27;43.03
54306;BME280;66145;45.188;5.712;2024-02-26T01:39:48;97427.88;;;20.30;43.29
54306;BME280;66145;45.188;5.712;2024-02-26T01:42:14;97423.50;;;20.25;43.34
54306;BME280;66145;45.188;5.712;2024-02-26T01:44:39;97403.81;;;20.19;43.38
54306;BME280;66145;45.188;5.712;2024-02-26T01:47:10;97419.66;;;20.30;43.28
54306;BME280;66145;45.188;5.712;2024-02-26T01:49:36;97418.75;;;20.22;43.33
54306;BME280;66145;45.188;5.712;2024-02-26T01:52:04;97432.16;;;20.27;43.49
54306;BME280;66145;45.188;5.712;2024-02-26T01:54:31;97426.69;;;20.27;43.31
54306;BME280;66145;45.188;5.712;2024-02-26T01:56:57;97419.94;;;20.25;43.59
54306;BME280;66145;45.188;5.712;2024-02-26T01:59:23;97419.16;;;20.24;43.21
54306;BME280;66145;45.188;5.712;2024-02-26T02:01:53;97415.63;;;20.24;43.65
54306;BME280;66145;45.188;5.712;2024-02-26T02:04:20;97410.88;;;20.20;43.43
54306;BME280;66145;45.188;5.712;2024-02-26T02:06:46;97395.06;;;20.14;43.23
54306;BME280;66145;45.188;5.712;2024-02-26T02:09:12;97398.19;;;20.12;43.24
54306;BME280;66145;45.188;5.712;2024-02-26T02:11:37;97416.44;;;20.24;43.35
54306;BME280;66145;45.188;5.712;2024-02-26T02:14:03;97398.66;;;20.18;43.43
54306;BME280;66145;45.188;5.712;2024-02-26T02:16:29;97387.38;;;20.23;43.19
54306;BME280;66145;45.188;5.712;2024-02-26T02:18:54;97405.44;;;20.24;43.02
54306;BME280;66145;45.188;5.712;2024-02-26T02:21:20;97400.44;;;20.30;43.34
54306;BME280;66145;45.188;5.712;2024-02-26T02:23:45;97415.78;;;20.34;43.12
54306;BME280;66145;45.188;5.712;2024-02-26T02:26:12;97388.59;;;20.26;42.91
54306;BME280;66145;45.188;5.712;2024-02-26T02:28:39;97392.16;;;20.26;43.24
54306;BME280;66145;45.188;5.712;2024-02-26T02:31:05;97396.41;;;20.24;43.23
54306;BME280;66145;45.188;5.712;2024-02-26T02:33:31;97382.59;;;20.16;42.96
54306;BME280;66145;45.188;5.712;2024-02-26T02:35:56;97392.19;;;20.30;43.10
54306;BME280;66145;45.188;5.712;2024-02-26T02:38:23;97359.03;;;20.15;43.31
54306;BME280;66145;45.188;5.712;2024-02-26T02:40:49;97366.91;;;20.17;43.17
54306;BME280;66145;45.188;5.712;2024-02-26T02:43:14;97337.03;;;20.12;43.23
54306;BME280;66145;45.188;5.712;2024-02-26T02:45:39;97348.09;;;20.19;43.08
54306;BME280;66145;45.188;5.712;2024-02-26T02:48:05;97350.44;;;20.17;43.18
54306;BME280;66145;45.188;5.712;2024-02-26T02:50:30;97364.22;;;20.20;43.27
54306;BME280;66145;45.188;5.712;2024-02-26T02:52:55;97357.84;;;20.13;43.22
54306;BME280;66145;45.188;5.712;2024-02-26T02:55:21;97363.03;;;20.21;43.13
54306;BME280;66145;45.188;5.712;2024-02-26T02:57:46;97334.22;;;20.08;43.00
54306;BME280;66145;45.188;5.712;2024-02-26T03:00:12;97359.63;;;20.28;43.28
54306;BME280;66145;45.188;5.712;2024-02-26T03:02:38;97362.38;;;20.28;42.97
54306;BME280;66145;45.188;5.712;2024-02-26T03:05:04;97359.56;;;20.25;42.90
54306;BME280;66145;45.188;5.712;2024-02-26T03:07:29;97361.56;;;20.28;42.76
54306;BME280;66145;45.188;5.712;2024-02-26T03:09:55;97372.19;;;20.29;43.01
54306;BME280;66145;45.188;5.712;2024-02-26T03:12:20;97357.63;;;20.25;42.92
54306;BME280;66145;45.188;5.712;2024-02-26T03:14:46;97330.91;;;20.22;43.29
54306;BME280;66145;45.188;5.712;2024-02-26T03:17:11;97317.97;;;20.23;43.14
54306;BME280;66145;45.188;5.712;2024-02-26T03:19:37;97321.97;;;20.29;42.99
54306;BME280;66145;45.188;5.712;2024-02-26T03:22:02;97332.97;;;20.29;42.92
54306;BME280;66145;45.188;5.712;2024-02-26T03:24:27;97295.03;;;20.08;43.01
54306;BME280;66145;45.188;5.712;2024-02-26T03:26:53;97347.84;;;20.28;43.18
54306;BME280;66145;45.188;5.712;2024-02-26T03:29:19;97356.81;;;20.25;43.02
54306;BME280;66145;45.188;5.712;2024-02-26T03:31:44;97357.25;;;20.27;43.03
54306;BME280;66145;45.188;5.712;2024-02-26T03:34:09;97352.13;;;20.25;43.21
54306;BME280;66145;45.188;5.712;2024-02-26T03:36:36;97352.91;;;20.26;43.09
54306;BME280;66145;45.188;5.712;2024-02-26T03:39:02;97352.13;;;20.25;43.36
54306;BME280;66145;45.188;5.712;2024-02-26T03:41:32;97332.38;;;20.16;43.25
54306;BME280;66145;45.188;5.712;2024-02-26T03:43:58;97333.28;;;20.24;42.99
54306;BME280;66145;45.188;5.712;2024-02-26T03:46:24;97317.97;;;20.23;43.12
54306;BME280;66145;45.188;5.712;2024-02-26T03:48:49;97321.47;;;20.19;43.16
54306;BME280;66145;45.188;5.712;2024-02-26T03:51:14;97328.84;;;20.15;43.29
54306;BME280;66145;45.188;5.712;2024-02-26T03:53:40;97331.13;;;20.10;43.25
54306;BME280;66145;45.188;5.712;2024-02-26T03:56:06;97337.13;;;20.19;43.35
54306;BME280;66145;45.188;5.712;2024-02-26T03:58:31;97307.63;;;20.12;42.92
54306;BME280;66145;45.188;5.712;2024-02-26T04:00:57;97303.03;;;20.20;43.00
54306;BME280;66145;45.188;5.712;2024-02-26T04:03:22;97287.69;;;20.15;42.97
54306;BME280;66145;45.188;5.712;2024-02-26T04:05:47;97282.97;;;20.16;43.15
54306;BME280;66145;45.188;5.712;2024-02-26T04:08:13;97277.88;;;20.14;42.83
54306;BME280;66145;45.188;5.712;2024-02-26T04:10:38;97310.09;;;20.21;43.22
54306;BME280;66145;45.188;5.712;2024-02-26T04:13:07;97328.16;;;20.22;42.93
54306;BME280;66145;45.188;5.712;2024-02-26T04:15:33;97301.81;;;20.17;43.15
54306;BME280;66145;45.188;5.712;2024-02-26T04:17:59;97310.50;;;20.19;43.00
54306;BME280;66145;45.188;5.712;2024-02-26T04:20:24;97298.75;;;20.23;43.06
54306;BME280;66145;45.188;5.712;2024-02-26T04:22:50;97264.38;;;20.02;42.88
54306;BME280;66145;45.188;5.712;2024-02-26T04:25:15;97308.91;;;20.18;43.01
54306;BME280;66145;45.188;5.712;2024-02-26T04:27:40;97308.91;;;20.18;42.89
54306;BME280;66145;45.188;5.712;2024-02-26T04:30:06;97316.34;;;20.18;43.20
54306;BME280;66145;45.188;5.712;2024-02-26T04:32:32;97304.19;;;20.19;43.15
54306;BME280;66145;45.188;5.712;2024-02-26T04:34:57;97276.25;;;20.10;43.29
54306;BME280;66145;45.188;5.712;2024-02-26T04:37:23;97281.03;;;20.16;43.03
54306;BME280;66145;45.188;5.712;2024-02-26T04:39:48;97258.19;;;20.09;43.27
54306;BME280;66145;45.188;5.712;2024-02-26T04:42:13;97258.16;;;20.05;43.08
54306;BME280;66145;45.188;5.712;2024-02-26T04:44:39;97286.09;;;20.14;43.37
54306;BME280;66145;45.188;5.712;2024-02-26T04:47:04;97289.25;;;20.16;43.05
54306;BME280;66145;45.188;5.712;2024-02-26T04:49:30;97308.47;;;20.16;43.15
54306;BME280;66145;45.188;5.712;2024-02-26T04:51:55;97319.41;;;20.13;43.26
54306;BME280;66145;45.188;5.712;2024-02-26T04:54:20;97315.88;;;20.12;43.30
54306;BME280;66145;45.188;5.712;2024-02-26T04:56:46;97300.94;;;20.10;43.15
54306;BME280;66145;45.188;5.712;2024-02-26T04:59:11;97313.97;;;20.16;43.29
54306;BME280;66145;45.188;5.712;2024-02-26T05:01:37;97292.00;;;20.16;43.17
54306;BME280;66145;45.188;5.712;2024-02-26T05:04:02;97286.09;;;20.14;43.43
54306;BME280;66145;45.188;5.712;2024-02-26T05:06:31;97310.09;;;20.21;43.34
54306;BME280;66145;45.188;5.712;2024-02-26T05:08:56;97312.00;;;20.17;43.41
54306;BME280;66145;45.188;5.712;2024-02-26T05:11:21;97301.38;;;20.12;43.34
54306;BME280;66145;45.188;5.712;2024-02-26T05:13:47;97307.16;;;20.06;43.62
54306;BME280;66145;45.188;5.712;2024-02-26T05:16:13;97323.72;;;20.14;43.48
54306;BME280;66145;45.188;5.712;2024-02-26T05:18:38;97318.31;;;20.17;43.48
54306;BME280;66145;45.188;5.712;2024-02-26T05:21:04;97322.63;;;20.18;43.30
54306;BME280;66145;45.188;5.712;2024-02-26T05:23:29;97291.69;;;19.95;43.95
54306;BME280;66145;45.188;5.712;2024-02-26T05:25:55;97315.09;;;20.12;43.30
54306;BME280;66145;45.188;5.712;2024-02-26T05:28:20;97304.16;;;20.15;42.89
54306;BME280;66145;45.188;5.712;2024-02-26T05:30:46;97315.88;;;20.12;42.97
54306;BME280;66145;45.188;5.712;2024-02-26T05:33:11;97307.59;;;20.09;42.80
54306;BME280;66145;45.188;5.712;2024-02-26T05:35:37;97320.63;;;20.15;43.11
54306;BME280;66145;45.188;5.712;2024-02-26T05:38:03;97311.44;;;20.04;42.87
54306;BME280;66145;45.188;5.712;2024-02-26T05:40:28;97325.16;;;20.04;42.92
54306;BME280;66145;45.188;5.712;2024-02-26T05:42:55;97342.63;;;20.19;43.15
54306;BME280;66145;45.188;5.712;2024-02-26T05:45:20;97335.47;;;20.11;43.00
54306;BME280;66145;45.188;5.712;2024-02-26T05:47:47;97331.69;;;20.23;43.12
54306;BME280;66145;45.188;5.712;2024-02-26T05:50:12;97313.50;;;20.11;42.90
54306;BME280;66145;45.188;5.712;2024-02-26T05:52:38;97311.97;;;20.13;43.04
54306;BME280;66145;45.188;5.712;2024-02-26T05:55:04;97321.72;;;20.11;42.98
54306;BME280;66145;45.188;5.712;2024-02-26T05:57:31;97336.69;;;20.17;42.89
54306;BME280;66145;45.188;5.712;2024-02-26T05:59:56;97329.91;;;20.07;43.02
54306;BME280;66145;45.188;5.712;2024-02-26T06:02:21;97345.19;;;20.08;43.01
54306;BME280;66145;45.188;5.712;2024-02-26T06:04:47;97357.06;;;20.16;42.93
54306;BME280;66145;45.188;5.712;2024-02-26T06:07:12;97343.69;;;20.11;43.17
54306;BME280;66145;45.188;5.712;2024-02-26T06:09:37;97361.75;;;20.12;42.99
54306;BME280;66145;45.188;5.712;2024-02-26T06:12:03;97359.03;;;20.15;43.11
54306;BME280;66145;45.188;5.712;2024-02-26T06:14:28;97363.38;;;20.16;43.05
54306;BME280;66145;45.188;5.712;2024-02-26T06:16:54;97372.38;;;20.17;42.78
54306;BME280;66145;45.188;5.712;2024-02-26T06:19:19;97362.09;;;20.10;43.13
54306;BME280;66145;45.188;5.712;2024-02-26T06:21:44;97373.97;;;20.18;42.94
54306;BME280;66145;45.188;5.712;2024-02-26T06:24:09;97368.88;;;20.16;42.99
54306;BME280;66145;45.188;5.712;2024-02-26T06:26:35;97357.41;;;20.11;42.71
54306;BME280;66145;45.188;5.712;2024-02-26T06:29:00;97363.81;;;20.18;43.06
54306;BME280;66145;45.188;5.712;2024-02-26T06:31:25;97352.81;;;20.18;42.75
54306;BME280;66145;45.188;5.712;2024-02-26T06:33:53;97350.75;;;20.12;42.93
54306;BME280;66145;45.188;5.712;2024-02-26T06:36:18;97353.97;;;20.17;43.03
54306;BME280;66145;45.188;5.712;2024-02-26T06:38:43;97342.88;;;20.10;42.78
54306;BME280;66145;45.188;5.712;2024-02-26T06:41:09;97296.34;;;19.90;42.79
54306;BME280;66145;45.188;5.712;2024-02-26T06:43:34;97331.06;;;20.06;43.00
54306;BME280;66145;45.188;5.712;2024-02-26T06:46:00;97342.94;;;20.14;43.02
54306;BME280;66145;45.188;5.712;2024-02-26T06:48:25;97350.81;;;20.15;43.00
54306;BME280;66145;45.188;5.712;2024-02-26T06:50:50;97339.72;;;20.08;42.84
54306;BME280;66145;45.188;5.712;2024-02-26T06:53:16;97341.72;;;20.11;42.99
54306;BME280;66145;45.188;5.712;2024-02-26T06:55:42;97347.22;;;20.11;43.11
54306;BME280;66145;45.188;5.712;2024-02-26T06:58:08;97329.53;;;20.09;42.93
54306;BME280;66145;45.188;5.712;2024-02-26T07:00:33;97316.09;;;20.00;42.96
54306;BME280;66145;45.188;5.712;2024-02-26T07:02:58;97326.41;;;20.10;42.96
54306;BME280;66145;45.188;5.712;2024-02-26T07:05:24;97320.94;;;20.10;42.98
54306;BME280;66145;45.188;5.712;2024-02-26T07:07:49;97331.16;;;20.13;43.17
54306;BME280;66145;45.188;5.712;2024-02-26T07:10:14;97317.88;;;20.15;42.80
54306;BME280;66145;45.188;5.712;2024-02-26T07:12:40;97328.91;;;20.19;42.71
54306;BME280;66145;45.188;5.712;2024-02-26T07:15:05;97321.41;;;20.16;43.18
54306;BME280;66145;45.188;5.712;2024-02-26T07:17:33;97331.63;;;20.19;42.77
54306;BME280;66145;45.188;5.712;2024-02-26T07:19:59;97307.59;;;20.09;43.14
54306;BME280;66145;45.188;5.712;2024-02-26T07:22:24;97318.66;;;20.16;42.94
54306;BME280;66145;45.188;5.712;2024-02-26T07:24:50;97312.34;;;20.12;42.82
54306;BME280;66145;45.188;5.712;2024-02-26T07:27:16;97331.59;;;20.15;42.75
54306;BME280;66145;45.188;5.712;2024-02-26T07:29:42;97346.16;;;20.19;43.06
54306;BME280;66145;45.188;5.712;2024-02-26T07:32:08;97336.28;;;20.15;42.94
54306;BME280;66145;45.188;5.712;2024-02-26T07:34:33;97341.38;;;20.13;43.03
54306;BME280;66145;45.188;5.712;2024-02-26T07:36:59;97358.22;;;20.15;43.22
54306;BME280;66145;45.188;5.712;2024-02-26T07:39:24;97349.19;;;20.11;42.99
54306;BME280;66145;45.188;5.712;2024-02-26T07:41:50;97340.53;;;20.09;43.21
54306;BME280;66145;45.188;5.712;2024-02-26T07:44:18;97347.59;;;20.10;42.92
54306;BME280;66145;45.188;5.712;2024-02-26T07:46:44;97346.44;;;20.11;43.08
54306;BME280;66145;45.188;5.712;2024-02-26T07:49:09;97357.84;;;20.13;43.17
54306;BME280;66145;45.188;5.712;2024-02-26T07:51:34;97349.91;;;20.08;42.65
54306;BME280;66145;45.188;5.712;2024-02-26T07:54:02;97330.41;;;19.89;42.37
54306;BME280;66145;45.188;5.712;2024-02-26T07:56:28;97331.69;;;19.96;42.59
54306;BME280;66145;45.188;5.712;2024-02-26T07:58:53;97336.44;;;19.99;42.39
54306;BME280;66145;45.188;5.712;2024-02-26T08:01:18;97353.50;;;20.12;42.17
54306;BME280;66145;45.188;5.712;2024-02-26T08:03:44;97365.66;;;20.11;42.30
54306;BME280;66145;45.188;5.712;2024-02-26T08:06:09;97359.41;;;20.14;42.24
54306;BME280;66145;45.188;5.712;2024-02-26T08:08:35;97349.66;;;20.16;41.98
54306;BME280;66145;45.188;5.712;2024-02-26T08:11:00;97335.81;;;20.09;41.74
54306;BME280;66145;45.188;5.712;2024-02-26T08:13:25;97354.75;;;20.18;41.95
54306;BME280;66145;45.188;5.712;2024-02-26T08:15:51;97351.97;;;20.14;42.00
54306;BME280;66145;45.188;5.712;2024-02-26T08:18:18;97361.41;;;20.17;42.02
54306;BME280;66145;45.188;5.712;2024-02-26T08:20:43;97357.88;;;20.16;41.94
54306;BME280;66145;45.188;5.712;2024-02-26T08:23:08;97360.66;;;20.20;41.94
54306;BME280;66145;45.188;5.712;2024-02-26T08:25:34;97354.28;;;20.12;42.01
54306;BME280;66145;45.188;5.712;2024-02-26T08:27:59;97366.53;;;20.18;42.03
54306;BME280;66145;45.188;5.712;2024-02-26T08:30:24;97353.91;;;20.14;42.12
54306;BME280;66145;45.188;5.712;2024-02-26T08:32:50;97360.59;;;20.13;42.03
54306;BME280;66145;45.188;5.712;2024-02-26T08:35:16;97348.75;;;20.09;42.05
54306;BME280;66145;45.188;5.712;2024-02-26T08:37:44;97363.00;;;20.18;42.10
54306;BME280;66145;45.188;5.712;2024-02-26T08:40:10;97352.75;;;20.15;42.19
54306;BME280;66145;45.188;5.712;2024-02-26T08:42:35;97357.47;;;20.14;42.26
54306;BME280;66145;45.188;5.712;2024-02-26T08:45:01;97338.38;;;19.98;42.70
54306;BME280;66145;45.188;5.712;2024-02-26T08:47:27;97369.16;;;20.11;42.24
54306;BME280;66145;45.188;5.712;2024-02-26T08:49:53;97361.66;;;20.08;42.33
54306;BME280;66145;45.188;5.712;2024-02-26T08:52:18;97370.03;;;20.15;42.18
54306;BME280;66145;45.188;5.712;2024-02-26T08:54:44;97367.97;;;20.09;42.12
54306;BME280;66145;45.188;5.712;2024-02-26T08:57:09;97350.25;;;20.06;42.09
54306;BME280;66145;45.188;5.712;2024-02-26T08:59:35;97369.63;;;20.17;42.44
54306;BME280;66145;45.188;5.712;2024-02-26T09:02:00;97361.41;;;20.17;42.08
54306;BME280;66145;45.188;5.712;2024-02-26T09:04:25;97368.88;;;20.16;42.06
54306;BME280;66145;45.188;5.712;2024-02-26T09:06:52;97365.22;;;20.09;42.16
54306;BME280;66145;45.188;5.712;2024-02-26T09:09:17;97389.31;;;20.23;41.97
54306;BME280;66145;45.188;5.712;2024-02-26T09:11:43;97383.06;;;20.22;42.23
54306;BME280;66145;45.188;5.712;2024-02-26T09:14:08;97380.28;;;20.18;42.21
54306;BME280;66145;45.188;5.712;2024-02-26T09:16:34;97383.75;;;20.15;42.24
54306;BME280;66145;45.188;5.712;2024-02-26T09:18:59;97371.00;;;20.03;42.33
54306;BME280;66145;45.188;5.712;2024-02-26T09:21:24;97386.44;;;20.12;42.47
54306;BME280;66145;45.188;5.712;2024-02-26T09:23:50;97392.75;;;20.16;42.39
54306;BME280;66145;45.188;5.712;2024-02-26T09:26:16;97388.50;;;20.18;42.71
54306;BME280;66145;45.188;5.712;2024-02-26T09:28:42;97354.44;;;19.96;42.38
54306;BME280;66145;45.188;5.712;2024-02-26T09:31:07;97388.84;;;20.17;42.29
54306;BME280;66145;45.188;5.712;2024-02-26T09:33:33;97403.81;;;20.19;42.30
54306;BME280;66145;45.188;5.712;2024-02-26T09:35:59;97388.06;;;20.16;42.23
54306;BME280;66145;45.188;5.712;2024-02-26T09:38:26;97380.06;;;20.04;42.32
54306;BME280;66145;45.188;5.712;2024-02-26T09:40:51;97391.94;;;20.12;42.25
54306;BME280;66145;45.188;5.712;2024-02-26T09:43:21;97413.63;;;20.20;42.43
54306;BME280;66145;45.188;5.712;2024-02-26T09:45:47;97392.34;;;20.14;42.24
54306;BME280;66145;45.188;5.712;2024-02-26T09:48:15;97393.13;;;20.14;42.20
54306;BME280;66145;45.188;5.712;2024-02-26T09:50:43;97399.16;;;20.24;42.36
54306;BME280;66145;45.188;5.712;2024-02-26T09:53:10;97397.22;;;20.24;42.14
54306;BME280;66145;45.188;5.712;2024-02-26T09:55:36;97393.66;;;20.24;42.15
54306;BME280;66145;45.188;5.712;2024-02-26T09:58:04;97399.66;;;20.29;42.24
54306;BME280;66145;45.188;5.712;2024-02-26T10:00:31;97393.63;;;20.20;42.01
54306;BME280;66145;45.188;5.712;2024-02-26T10:03:03;97403.88;;;20.23;42.26
54306;BME280;66145;45.188;5.712;2024-02-26T10:05:30;97399.91;;;20.20;42.38
54306;BME280;66145;45.188;5.712;2024-02-26T10:07:57;97407.75;;;20.22;42.23
54306;BME280;66145;45.188;5.712;2024-02-26T10:10:25;97412.09;;;20.23;42.41
54306;BME280;66145;45.188;5.712;2024-02-26T10:12:52;97401.81;;;20.16;42.18
54306;BME280;66145;45.188;5.712;2024-02-26T10:15:18;97408.97;;;20.25;42.25
54306;BME280;66145;45.188;5.712;2024-02-26T10:17:43;97400.25;;;20.19;42.28
54306;BME280;66145;45.188;5.712;2024-02-26T10:20:16;97400.72;;;20.25;42.20
54306;BME280;66145;45.188;5.712;2024-02-26T10:22:48;97397.22;;;20.24;42.26
54306;BME280;66145;45.188;5.712;2024-02-26T10:25:14;97392.44;;;20.21;42.23
54306;BME280;66145;45.188;5.712;2024-02-26T10:27:42;97399.97;;;20.24;42.12
54306;BME280;66145;45.188;5.712;2024-02-26T10:32:45;97383.38;;;20.17;42.05
54306;BME280;66145;45.188;5.712;2024-02-26T10:35:11;97397.22;;;20.24;42.34
54306;BME280;66145;45.188;5.712;2024-02-26T10:37:36;97371.88;;;20.08;42.30
54306;BME280;66145;45.188;5.712;2024-02-26T10:40:02;97388.94;;;20.20;42.51
54306;BME280;66145;45.188;5.712;2024-02-26T10:42:28;97373.06;;;20.10;42.06
54306;BME280;66145;45.188;5.712;2024-02-26T10:44:53;97386.91;;;20.17;42.42
54306;BME280;66145;45.188;5.712;2024-02-26T10:47:19;97381.78;;;20.16;42.25
54306;BME280;66145;45.188;5.712;2024-02-26T10:49:46;97369.91;;;20.08;42.45
54306;BME280;66145;45.188;5.712;2024-02-26T10:52:13;97361.56;;;20.01;42.48
54306;BME280;66145;45.188;5.712;2024-02-26T10:54:41;97367.91;;;20.05;42.32
54306;BME280;66145;45.188;5.712;2024-02-26T10:57:09;97378.13;;;20.08;42.65
54306;BME280;66145;45.188;5.712;2024-02-26T10:59:35;97370.59;;;20.01;42.56
54306;BME280;66145;45.188;5.712;2024-02-26T11:02:02;97359.13;;;19.96;42.63
54306;BME280;66145;45.188;5.712;2024-02-26T11:04:29;97331.81;;;19.80;42.57
54306;BME280;66145;45.188;5.712;2024-02-26T11:06:57;97366.69;;;20.02;42.56
54306;BME280;66145;45.188;5.712;2024-02-26T11:09:22;97347.69;;;19.90;42.45
54306;BME280;66145;45.188;5.712;2024-02-26T11:11:50;97369.91;;;20.08;42.68
54306;BME280;66145;45.188;5.712;2024-02-26T11:14:20;97354.59;;;20.07;42.35
54306;BME280;66145;45.188;5.712;2024-02-26T11:16:47;97349.09;;;20.07;42.46
54306;BME280;66145;45.188;5.712;2024-02-26T11:19:16;97334.47;;;19.99;42.51
54306;BME280;66145;45.188;5.712;2024-02-26T11:21:42;97344.78;;;20.06;42.39
54306;BME280;66145;45.188;5.712;2024-02-26T11:24:13;97355.88;;;20.13;42.71
54306;BME280;66145;45.188;5.712;2024-02-26T11:26:45;97331.81;;;20.03;42.54
54306;BME280;66145;45.188;5.712;2024-02-26T11:29:17;97352.75;;;20.15;42.39
54306;BME280;66145;45.188;5.712;2024-02-26T11:31:44;97336.53;;;20.06;42.24
54306;BME280;66145;45.188;5.712;2024-02-26T11:34:10;97337.81;;;20.12;42.45
54306;BME280;66145;45.188;5.712;2024-02-26T11:36:37;97314.94;;;20.01;42.43
54306;BME280;66145;45.188;5.712;2024-02-26T11:39:04;97329.97;;;20.11;42.19
54306;BME280;66145;45.188;5.712;2024-02-26T11:41:30;97333.88;;;20.10;42.28
54306;BME280;66145;45.188;5.712;2024-02-26T11:43:59;97330.28;;;20.05;42.61
54306;BME280;66145;45.188;5.712;2024-02-26T11:46:27;97319.94;;;19.95;42.41
54306;BME280;66145;45.188;5.712;2024-02-26T11:51:55;97311.09;;;19.82;42.60
54306;BME280;66145;45.188;5.712;2024-02-26T11:57:30;97305.59;;;19.82;42.18
54306;BME280;66145;45.188;5.712;2024-02-26T12:02:50;97313.03;;;19.82;42.63
54306;BME280;66145;45.188;5.712;2024-02-26T12:05:21;97308.22;;;19.75;42.70
54306;BME280;66145;45.188;5.712;2024-02-26T12:07:59;97303.41;;;19.68;42.64
54306;BME280;66145;45.188;5.712;2024-02-26T12:10:31;97305.38;;;19.68;42.61
54306;BME280;66145;45.188;5.712;2024-02-26T12:13:16;97304.53;;;19.64;42.81
54306;BME280;66145;45.188;5.712;2024-02-26T12:15:47;97291.09;;;19.58;42.53
54306;BME280;66145;45.188;5.712;2024-02-26T12:18:20;97291.88;;;19.55;42.30
54306;BME280;66145;45.188;5.712;2024-02-26T12:20:46;97282.34;;;19.49;42.79
54306;BME280;66145;45.188;5.712;2024-02-26T12:23:16;97280.81;;;19.52;42.49
54306;BME280;66145;45.188;5.712;2024-02-26T12:25:44;97282.34;;;19.49;42.84
54306;BME280;66145;45.188;5.712;2024-02-26T12:28:09;97276.88;;;19.49;43.01
54306;BME280;66145;45.188;5.712;2024-02-26T12:30:35;97283.50;;;19.48;42.79
54306;BME280;66145;45.188;5.712;2024-02-26T12:33:01;97276.81;;;19.45;43.14
54306;BME280;66145;45.188;5.712;2024-02-26T12:35:27;97272.44;;;19.41;43.16
54306;BME280;66145;45.188;5.712;2024-02-26T12:37:53;97257.81;;;19.33;42.95
54306;BME280;66145;45.188;5.712;2024-02-26T12:40:20;97268.78;;;19.33;42.83
54306;BME280;66145;45.188;5.712;2024-02-26T12:42:45;97267.13;;;19.28;43.17
54306;BME280;66145;45.188;5.712;2024-02-26T12:45:12;97277.06;;;19.37;43.07
54306;BME280;66145;45.188;5.712;2024-02-26T12:47:39;97272.00;;;19.39;42.76
54306;BME280;66145;45.188;5.712;2024-02-26T12:50:05;97247.50;;;19.26;42.69
54306;BME280;66145;45.188;5.712;2024-02-26T12:52:35;97261.78;;;19.36;42.77
54306;BME280;66145;45.188;5.712;2024-02-26T12:55:02;97260.25;;;19.38;43.07
54306;BME280;66145;45.188;5.712;2024-02-26T12:57:35;97245.19;;;19.28;43.08
54306;BME280;66145;45.188;5.712;2024-02-26T13:00:01;97233.69;;;19.19;42.89
54306;BME280;66145;45.188;5.712;2024-02-26T13:02:28;97260.19;;;19.35;43.08
54306;BME280;66145;45.188;5.712;2024-02-26T13:04:54;97244.47;;;19.32;43.06